createdAt,value
2019-03-19T00:02:12.595Z,2.95
2019-03-19T00:04:41.693Z,2.65
2019-03-19T00:07:10.856Z,2.90
2019-03-19T00:09:39.989Z,3.08
2019-03-19T00:12:09.169Z,3.10
2019-03-19T00:14:38.300Z,3.22
2019-03-19T00:17:07.481Z,3.27
2019-03-19T00:19:36.621Z,3.33
2019-03-19T00:22:05.740Z,3.08
2019-03-19T00:24:34.909Z,3.10
2019-03-19T00:27:04.043Z,2.92
2019-03-19T00:29:33.223Z,2.62
2019-03-19T00:32:02.337Z,1.98
2019-03-19T00:34:31.500Z,2.60
2019-03-19T00:37:00.657Z,2.30
2019-03-19T00:39:29.861Z,2.00
2019-03-19T00:41:59.046Z,2.35
2019-03-19T00:44:28.174Z,2.35
2019-03-19T00:46:57.304Z,2.70
2019-03-19T00:49:26.428Z,1.80
2019-03-19T00:51:55.549Z,2.62
2019-03-19T00:54:24.703Z,2.90
2019-03-19T00:56:53.820Z,2.65
2019-03-19T00:59:22.952Z,2.65
2019-03-19T01:01:52.108Z,2.40
2019-03-19T01:04:21.248Z,2.87
2019-03-19T01:06:50.378Z,2.42
2019-03-19T01:09:19.514Z,2.35
2019-03-19T01:11:48.656Z,2.27
2019-03-19T01:14:17.813Z,2.00
2019-03-19T01:16:46.950Z,2.37
2019-03-19T01:19:16.274Z,2.58
2019-03-19T01:21:45.414Z,3.15
2019-03-19T01:24:14.545Z,3.77
2019-03-19T01:26:43.704Z,2.65
2019-03-19T01:29:12.847Z,2.83
2019-03-19T01:31:41.983Z,2.40
2019-03-19T01:34:11.120Z,2.20
2019-03-19T01:36:40.269Z,1.52
2019-03-19T01:39:09.436Z,1.75
2019-03-19T01:41:38.571Z,2.92
2019-03-19T01:44:07.721Z,2.05
2019-03-19T01:46:36.839Z,2.17
2019-03-19T01:49:26.374Z,2.58
2019-03-19T01:51:55.498Z,2.02
2019-03-19T01:54:24.650Z,2.50
2019-03-19T01:56:53.760Z,1.90
2019-03-19T01:59:22.888Z,2.15
2019-03-19T02:01:52.062Z,2.80
2019-03-19T02:04:21.176Z,2.62
2019-03-19T02:06:50.292Z,2.27
2019-03-19T02:09:19.423Z,3.20
2019-03-19T02:11:48.571Z,2.80
2019-03-19T02:14:17.731Z,2.70
2019-03-19T02:16:46.884Z,2.65
2019-03-19T02:19:16.122Z,2.50
2019-03-19T02:21:45.262Z,2.60
2019-03-19T02:24:14.402Z,2.52
2019-03-19T02:26:43.512Z,2.77
2019-03-19T02:29:12.632Z,2.90
2019-03-19T02:31:41.754Z,2.30
2019-03-19T02:34:10.943Z,2.35
2019-03-19T02:36:40.067Z,2.92
2019-03-19T02:39:09.232Z,2.17
2019-03-19T02:41:38.372Z,2.30
2019-03-19T02:44:07.582Z,2.22
2019-03-19T02:46:36.705Z,2.62
2019-03-19T02:49:05.854Z,2.40
2019-03-19T02:51:35.000Z,3.00
2019-03-19T02:54:04.173Z,2.40
2019-03-19T02:56:33.734Z,2.33
2019-03-19T02:59:02.982Z,2.00
2019-03-19T03:01:32.132Z,2.15
2019-03-19T03:04:01.288Z,1.90
2019-03-19T03:06:30.410Z,1.80
2019-03-19T03:08:59.576Z,1.92
2019-03-19T03:11:28.700Z,1.82
2019-03-19T03:13:57.859Z,2.77
2019-03-19T03:16:26.978Z,2.80
2019-03-19T03:18:56.078Z,1.70
2019-03-19T03:21:25.216Z,3.50
2019-03-19T03:23:54.332Z,2.70
2019-03-19T03:26:23.524Z,2.10
2019-03-19T03:28:52.645Z,2.50
2019-03-19T03:31:21.816Z,2.20
2019-03-19T03:33:50.993Z,2.65
2019-03-19T03:36:20.148Z,2.77
2019-03-19T03:38:49.320Z,2.02
2019-03-19T03:41:18.468Z,2.47
2019-03-19T03:43:47.607Z,2.90
2019-03-19T03:46:16.787Z,3.40
2019-03-19T03:48:45.942Z,4.00
2019-03-19T03:51:15.321Z,3.00
2019-03-19T03:53:44.434Z,3.40
2019-03-19T03:56:13.663Z,3.87
2019-03-19T03:58:42.823Z,3.58
2019-03-19T04:01:11.955Z,3.92
2019-03-19T04:03:41.070Z,2.60
2019-03-19T04:06:10.205Z,2.45
2019-03-19T04:08:39.320Z,3.58
2019-03-19T04:11:08.450Z,2.77
2019-03-19T04:13:37.599Z,3.75
2019-03-19T04:16:06.762Z,2.87
2019-03-19T04:18:35.853Z,3.30
2019-03-19T04:21:04.997Z,3.58
2019-03-19T04:23:34.124Z,3.50
2019-03-19T04:26:03.277Z,3.77
2019-03-19T04:28:32.460Z,3.62
2019-03-19T04:31:01.591Z,3.50
2019-03-19T04:33:30.705Z,3.50
2019-03-19T04:35:59.839Z,3.50
2019-03-19T04:38:28.989Z,2.37
2019-03-19T04:40:58.120Z,3.60
2019-03-19T04:43:27.289Z,3.50
2019-03-19T04:45:56.438Z,3.25
2019-03-19T04:48:25.562Z,3.08
2019-03-19T04:50:54.704Z,3.37
2019-03-19T04:53:24.398Z,3.62
2019-03-19T04:55:54.689Z,3.00
2019-03-19T04:58:23.811Z,3.20
2019-03-19T05:00:52.962Z,3.98
2019-03-19T05:03:22.095Z,3.30
2019-03-19T05:05:51.239Z,3.08
2019-03-19T05:08:20.411Z,4.58
2019-03-19T05:10:49.549Z,3.75
2019-03-19T05:13:18.707Z,3.33
2019-03-19T05:15:47.841Z,4.33
2019-03-19T05:18:16.979Z,5.15
2019-03-19T05:20:46.103Z,5.40
2019-03-19T05:23:15.364Z,4.33
2019-03-19T05:25:44.475Z,4.58
2019-03-19T05:28:13.629Z,3.62
2019-03-19T05:30:42.779Z,3.58
2019-03-19T05:33:11.895Z,3.85
2019-03-19T05:35:41.033Z,5.00
2019-03-19T05:38:10.147Z,3.90
2019-03-19T05:40:39.317Z,4.62
2019-03-19T05:43:08.497Z,3.85
2019-03-19T05:45:37.632Z,4.33
2019-03-19T05:48:06.816Z,4.72
2019-03-19T05:50:35.936Z,7.72
2019-03-19T05:53:05.074Z,7.40
2019-03-19T05:55:34.213Z,7.85
2019-03-19T05:58:03.366Z,8.53
2019-03-19T06:00:33.638Z,9.15
2019-03-19T06:03:02.846Z,7.87
2019-03-19T06:05:31.972Z,7.47
2019-03-19T06:08:01.169Z,7.58
2019-03-19T06:10:30.300Z,6.30
2019-03-19T06:12:59.432Z,6.15
2019-03-19T06:15:28.580Z,6.22
2019-03-19T06:17:57.714Z,4.65
2019-03-19T06:20:26.848Z,6.00
2019-03-19T06:22:56.026Z,4.87
2019-03-19T06:25:25.176Z,5.65
2019-03-19T06:28:00.483Z,5.67
2019-03-19T06:30:25.235Z,6.72
2019-03-19T06:32:54.379Z,6.37
2019-03-19T06:35:23.547Z,7.17
2019-03-19T06:37:52.769Z,9.03
2019-03-19T06:40:22.004Z,5.97
2019-03-19T06:42:51.143Z,5.08
2019-03-19T06:45:22.923Z,7.17
2019-03-19T06:47:51.131Z,5.70
2019-03-19T06:50:20.655Z,5.42
2019-03-19T06:52:49.851Z,5.08
2019-03-19T06:55:18.989Z,8.98
2019-03-19T06:57:48.250Z,8.70
2019-03-19T07:00:18.922Z,12.30
2019-03-19T07:02:48.080Z,10.35
2019-03-19T07:05:17.764Z,7.83
2019-03-19T07:07:46.918Z,7.58
2019-03-19T07:10:16.146Z,6.85
2019-03-19T07:12:45.284Z,7.60
2019-03-19T07:15:14.864Z,6.40
2019-03-19T07:17:43.981Z,5.50
2019-03-19T07:20:14.428Z,5.17
2019-03-19T07:22:43.582Z,6.30
2019-03-19T07:25:12.743Z,6.17
2019-03-19T07:27:41.853Z,6.33
2019-03-19T07:30:13.770Z,6.87
2019-03-19T07:32:42.903Z,7.10
2019-03-19T07:35:12.132Z,5.22
2019-03-19T07:37:41.273Z,5.67
2019-03-19T07:40:11.009Z,5.53
2019-03-19T07:42:40.152Z,4.65
2019-03-19T07:45:12.044Z,4.95
2019-03-19T07:47:41.241Z,5.53
2019-03-19T07:50:11.994Z,5.05
2019-03-19T07:52:41.105Z,6.22
2019-03-19T07:55:33.848Z,5.30
2019-03-19T07:58:13.965Z,5.15
2019-03-19T08:00:43.438Z,5.22
2019-03-19T08:03:16.295Z,5.22
2019-03-19T08:05:43.435Z,5.00
2019-03-19T08:08:12.576Z,4.62
2019-03-19T08:10:41.713Z,6.17
2019-03-19T08:13:10.834Z,5.00
2019-03-19T08:15:39.966Z,6.08
2019-03-19T08:18:09.114Z,6.72
2019-03-19T08:20:38.292Z,6.50
2019-03-19T08:23:09.100Z,6.85
2019-03-19T08:25:38.412Z,7.33
2019-03-19T08:28:07.536Z,7.17
2019-03-19T08:30:36.707Z,7.10
2019-03-19T08:33:05.904Z,6.20
2019-03-19T08:35:35.043Z,7.47
2019-03-19T08:38:04.152Z,5.85
2019-03-19T08:40:33.274Z,6.62
2019-03-19T08:43:02.421Z,6.67
2019-03-19T08:45:31.605Z,5.78
2019-03-19T08:48:00.747Z,6.28
2019-03-19T08:50:29.889Z,4.92
2019-03-19T08:52:59.031Z,5.15
2019-03-19T08:55:28.207Z,4.20
2019-03-19T08:57:57.331Z,5.03
2019-03-19T09:00:26.512Z,4.95
2019-03-19T09:02:55.645Z,5.10
2019-03-19T09:05:24.886Z,4.92
2019-03-19T09:07:54.102Z,4.47
2019-03-19T09:10:23.262Z,4.60
2019-03-19T09:12:52.394Z,4.60
2019-03-19T09:15:21.531Z,4.12
2019-03-19T09:17:50.705Z,4.85
2019-03-19T09:20:19.853Z,4.53
2019-03-19T09:22:49.008Z,4.30
2019-03-19T09:25:18.139Z,4.33
2019-03-19T09:27:47.286Z,4.50
2019-03-19T09:30:16.671Z,3.98
2019-03-19T09:32:45.811Z,3.80
2019-03-19T09:35:15.544Z,3.90
2019-03-19T09:37:57.260Z,3.60
2019-03-19T09:40:15.792Z,3.45
2019-03-19T09:42:44.944Z,3.35
2019-03-19T09:45:15.686Z,3.42
2019-03-19T09:47:44.790Z,3.00
2019-03-19T09:50:14.918Z,3.77
2019-03-19T09:52:44.237Z,2.87
2019-03-19T09:55:13.848Z,2.98
2019-03-19T09:57:43.199Z,3.80
2019-03-19T10:00:15.436Z,3.40
2019-03-19T10:02:44.585Z,3.17
2019-03-19T10:05:13.740Z,3.35
2019-03-19T10:07:43.263Z,3.33
2019-03-19T10:10:13.641Z,3.25
2019-03-19T10:12:42.824Z,3.10
2019-03-19T10:15:12.536Z,3.27
2019-03-19T10:17:41.669Z,3.35
2019-03-19T10:20:12.586Z,3.25
2019-03-19T10:22:41.716Z,3.00
2019-03-19T10:25:11.649Z,2.77
2019-03-19T10:27:40.841Z,3.00
2019-03-19T10:30:13.745Z,3.47
2019-03-19T10:32:42.876Z,3.20
2019-03-19T10:35:12.102Z,3.40
2019-03-19T10:37:41.267Z,2.62
2019-03-19T10:40:10.643Z,2.17
2019-03-19T10:42:39.884Z,2.58
2019-03-19T10:45:09.966Z,2.98
2019-03-19T10:47:39.109Z,2.62
2019-03-19T10:50:11.821Z,2.27
2019-03-19T10:52:40.943Z,2.50
2019-03-19T10:55:10.084Z,2.60
2019-03-19T10:57:39.256Z,3.25
2019-03-19T11:00:15.702Z,2.27
2019-03-19T11:02:44.866Z,2.72
2019-03-19T11:05:14.616Z,2.27
2019-03-19T11:07:43.868Z,2.30
2019-03-19T11:10:13.378Z,2.12
2019-03-19T11:12:42.593Z,2.08
2019-03-19T11:15:13.934Z,2.20
2019-03-19T11:17:43.142Z,2.30
2019-03-19T11:20:13.673Z,2.15
2019-03-19T11:22:42.834Z,2.00
2019-03-19T11:25:13.194Z,2.25
2019-03-19T11:27:42.380Z,2.20
2019-03-19T11:30:15.315Z,2.92
2019-03-19T11:32:44.497Z,2.05
2019-03-19T11:35:14.241Z,2.08
2019-03-19T11:37:43.361Z,2.27
2019-03-19T11:40:13.120Z,1.95
2019-03-19T11:42:42.235Z,2.22
2019-03-19T11:45:12.213Z,1.90
2019-03-19T11:47:41.385Z,2.10
2019-03-19T11:50:16.497Z,2.08
2019-03-19T11:52:46.084Z,2.33
2019-03-19T11:55:15.837Z,2.50
2019-03-19T11:57:45.037Z,2.95
2019-03-19T12:00:18.567Z,2.83
2019-03-19T12:02:47.763Z,2.10
2019-03-19T12:05:17.044Z,1.85
2019-03-19T12:07:46.216Z,1.90
2019-03-19T12:10:15.577Z,2.27
2019-03-19T12:12:44.747Z,2.20
2019-03-19T12:15:14.032Z,2.00
2019-03-19T12:17:43.176Z,1.82
2019-03-19T12:20:12.788Z,2.17
2019-03-19T12:22:42.194Z,1.60
2019-03-19T12:25:11.402Z,2.15
2019-03-19T12:27:40.712Z,1.80
2019-03-19T12:30:21.440Z,2.02
2019-03-19T12:32:42.121Z,1.95
2019-03-19T12:35:11.421Z,1.80
2019-03-19T12:37:40.598Z,2.00
2019-03-19T12:40:11.560Z,2.45
2019-03-19T12:42:40.721Z,2.40
2019-03-19T12:45:12.287Z,1.65
2019-03-19T12:47:41.435Z,1.75
2019-03-19T12:50:13.249Z,2.00
2019-03-19T12:52:42.398Z,2.65
2019-03-19T12:55:11.587Z,2.62
2019-03-19T12:57:40.762Z,2.35
2019-03-19T13:00:19.179Z,2.20
2019-03-19T13:02:48.375Z,2.37
2019-03-19T13:05:17.902Z,1.72
2019-03-19T13:07:47.091Z,2.50
2019-03-19T13:10:17.532Z,2.00
2019-03-19T13:12:46.745Z,2.00
2019-03-19T13:15:19.083Z,2.05
2019-03-19T13:17:48.001Z,2.17
2019-03-19T13:20:17.333Z,1.60
2019-03-19T13:22:46.524Z,1.82
2019-03-19T13:25:16.808Z,2.00
2019-03-19T13:27:46.087Z,1.72
2019-03-19T13:30:18.034Z,2.22
2019-03-19T13:32:47.242Z,2.15
2019-03-19T13:35:16.712Z,2.00
2019-03-19T13:37:50.626Z,1.70
2019-03-19T13:40:19.816Z,1.92
2019-03-19T13:42:48.996Z,1.80
2019-03-19T13:45:18.272Z,1.72
2019-03-19T13:47:47.478Z,2.02
2019-03-19T13:50:18.250Z,2.00
2019-03-19T13:52:47.502Z,2.15
2019-03-19T13:55:17.035Z,1.92
2019-03-19T13:57:46.245Z,2.02
2019-03-19T14:00:15.810Z,1.77
2019-03-19T14:02:45.101Z,2.10
2019-03-19T14:05:14.877Z,1.65
2019-03-19T14:07:44.085Z,1.62
2019-03-19T14:10:13.537Z,2.00
2019-03-19T14:12:42.757Z,1.60
2019-03-19T14:15:13.575Z,1.77
2019-03-19T14:17:42.752Z,2.15
2019-03-19T14:20:13.747Z,1.77
2019-03-19T14:22:45.289Z,1.65
2019-03-19T14:25:14.482Z,1.57
2019-03-19T14:27:43.707Z,1.90
2019-03-19T14:30:15.416Z,2.00
2019-03-19T14:32:44.789Z,1.80
2019-03-19T14:35:14.066Z,1.80
2019-03-19T14:37:43.251Z,1.57
2019-03-19T14:40:15.604Z,1.92
2019-03-19T14:42:45.141Z,1.57
2019-03-19T14:45:16.460Z,1.60
2019-03-19T14:47:46.130Z,1.72
2019-03-19T14:50:15.923Z,1.57
2019-03-19T14:52:45.289Z,1.60
2019-03-19T14:55:14.786Z,1.52
2019-03-19T14:57:43.980Z,1.65
2019-03-19T15:00:14.744Z,1.22
2019-03-19T15:02:44.023Z,1.67
2019-03-19T15:05:13.384Z,1.62
2019-03-19T15:07:42.576Z,1.70
2019-03-19T15:10:13.824Z,1.60
2019-03-19T15:12:42.981Z,1.70
2019-03-19T15:15:13.708Z,1.90
2019-03-19T15:17:42.888Z,1.75
2019-03-19T15:20:14.585Z,1.92
2019-03-19T15:22:43.769Z,1.37
2019-03-19T15:25:13.165Z,1.52
2019-03-19T15:27:42.521Z,1.80
2019-03-19T15:30:12.344Z,1.60
2019-03-19T15:32:41.705Z,1.52
2019-03-19T15:35:11.532Z,1.50
2019-03-19T15:37:40.845Z,1.55
2019-03-19T15:40:12.255Z,1.35
2019-03-19T15:42:41.574Z,1.30
2019-03-19T15:45:13.578Z,1.50
2019-03-19T15:47:43.319Z,1.82
2019-03-19T15:50:14.607Z,6.10
2019-03-19T15:52:43.933Z,4.58
2019-03-19T15:55:13.633Z,4.75
2019-03-19T15:57:43.310Z,6.25
2019-03-19T16:00:15.399Z,16.12
2019-03-19T16:02:45.200Z,4.00
2019-03-19T16:05:14.797Z,5.03
2019-03-19T16:07:44.212Z,7.08
2019-03-19T16:10:13.712Z,5.17
2019-03-19T16:12:43.047Z,7.05
2019-03-19T16:15:13.562Z,3.20
2019-03-19T16:17:42.876Z,3.75
2019-03-19T16:20:15.870Z,2.62
2019-03-19T16:22:49.390Z,2.80
2019-03-19T16:25:19.181Z,2.37
2019-03-19T16:27:49.916Z,2.17
2019-03-19T16:30:22.123Z,2.10
2019-03-19T16:32:54.023Z,1.60
2019-03-19T16:35:26.685Z,1.70
2019-03-19T16:37:59.315Z,1.35
2019-03-19T16:40:28.570Z,1.50
2019-03-19T16:42:58.020Z,1.65
2019-03-19T16:45:27.303Z,1.20
2019-03-19T16:47:56.583Z,1.62
2019-03-19T16:50:29.304Z,1.70
2019-03-19T16:52:58.520Z,1.50
2019-03-19T16:55:31.463Z,1.30
2019-03-19T16:58:01.065Z,1.75
2019-03-19T17:00:32.467Z,1.75
2019-03-19T17:03:01.796Z,1.45
2019-03-19T17:05:31.837Z,1.40
2019-03-19T17:08:01.184Z,1.62
2019-03-19T17:10:30.866Z,1.45
2019-03-19T17:13:00.218Z,1.35
2019-03-19T17:15:29.499Z,1.07
2019-03-19T17:17:58.971Z,1.80
2019-03-19T17:20:28.383Z,1.20
2019-03-19T17:22:57.674Z,1.10
2019-03-19T17:25:26.869Z,1.65
2019-03-19T17:27:56.479Z,1.20
2019-03-19T17:30:25.930Z,3.22
2019-03-19T17:32:55.189Z,8.10
2019-03-19T17:35:24.515Z,3.95
2019-03-19T17:37:53.705Z,6.22
2019-03-19T17:40:23.749Z,3.98
2019-03-19T17:42:52.911Z,2.52
2019-03-19T17:45:22.236Z,1.57
2019-03-19T17:47:51.850Z,1.80
2019-03-19T17:50:21.153Z,1.87
2019-03-19T17:52:50.915Z,3.27
2019-03-19T17:55:20.213Z,3.70
2019-03-19T17:57:49.418Z,4.40
2019-03-19T18:00:22.988Z,3.72
2019-03-19T18:02:52.514Z,2.83
2019-03-19T18:05:21.683Z,5.37
2019-03-19T18:07:50.943Z,10.30
2019-03-19T18:10:20.166Z,3.50
2019-03-19T18:12:49.361Z,2.55
2019-03-19T18:15:18.875Z,2.05
2019-03-19T18:17:48.070Z,2.50
2019-03-19T18:20:17.513Z,2.00
2019-03-19T18:22:46.672Z,1.98
2019-03-19T18:25:15.897Z,2.33
2019-03-19T18:27:45.170Z,1.90
2019-03-19T18:30:14.921Z,1.60
2019-03-19T18:32:44.177Z,1.45
2019-03-19T18:35:13.426Z,1.50
2019-03-19T18:37:42.834Z,1.90
2019-03-19T18:40:11.999Z,1.60
2019-03-19T18:42:41.242Z,1.25
2019-03-19T18:45:10.716Z,1.50
2019-03-19T18:47:39.981Z,1.57
2019-03-19T18:50:11.334Z,1.35
2019-03-19T18:52:40.571Z,1.45
2019-03-19T18:55:09.772Z,1.70
2019-03-19T18:57:41.418Z,1.82
2019-03-19T19:00:12.628Z,2.10
2019-03-19T19:02:49.866Z,2.40
2019-03-19T19:05:12.851Z,1.60
2019-03-19T19:07:42.072Z,1.40
2019-03-19T19:10:11.937Z,1.40
2019-03-19T19:12:41.197Z,1.50
2019-03-19T19:15:12.507Z,1.40
2019-03-19T19:17:41.722Z,1.60
2019-03-19T19:20:11.216Z,1.35
2019-03-19T19:22:40.415Z,1.27
2019-03-19T19:25:11.639Z,1.20
2019-03-19T19:27:40.876Z,1.40
2019-03-19T19:30:13.124Z,1.47
2019-03-19T19:32:42.671Z,1.62
2019-03-19T19:35:12.131Z,1.55
2019-03-19T19:37:41.489Z,1.40
2019-03-19T19:40:12.530Z,1.20
2019-03-19T19:42:42.248Z,2.22
2019-03-19T19:45:11.536Z,1.60
2019-03-19T19:47:40.957Z,1.72
2019-03-19T19:50:12.153Z,1.80
2019-03-19T19:52:41.684Z,2.22
2019-03-19T19:55:11.435Z,1.82
2019-03-19T19:57:40.614Z,2.10
2019-03-19T20:00:12.705Z,2.00
2019-03-19T20:02:42.121Z,1.65
2019-03-19T20:05:11.376Z,3.40
2019-03-19T20:07:40.532Z,2.40
2019-03-19T20:10:12.410Z,2.08
2019-03-19T20:12:41.707Z,1.77
2019-03-19T20:15:10.951Z,1.40
2019-03-19T20:17:40.161Z,2.35
2019-03-19T20:20:11.666Z,1.95
2019-03-19T20:22:40.843Z,1.70
2019-03-19T20:25:10.140Z,1.75
2019-03-19T20:27:39.575Z,2.27
2019-03-19T20:30:11.739Z,1.90
2019-03-19T20:32:41.012Z,1.55
2019-03-19T20:35:11.287Z,2.30
2019-03-19T20:37:40.841Z,2.40
2019-03-19T20:40:11.825Z,1.70
2019-03-19T20:42:41.119Z,1.50
2019-03-19T20:45:11.376Z,3.45
2019-03-19T20:47:40.589Z,2.25
2019-03-19T20:50:18.240Z,1.90
2019-03-19T20:52:47.386Z,1.90
2019-03-19T20:55:16.617Z,2.70
2019-03-19T20:57:45.904Z,2.47
2019-03-19T21:00:16.214Z,2.05
2019-03-19T21:02:45.339Z,2.15
2019-03-19T21:05:14.577Z,1.85
2019-03-19T21:07:43.811Z,2.17
2019-03-19T21:10:15.889Z,2.02
2019-03-19T21:12:45.027Z,2.47
2019-03-19T21:15:19.091Z,2.40
2019-03-19T21:17:48.458Z,2.47
2019-03-19T21:20:17.724Z,2.42
2019-03-19T21:22:46.884Z,2.00
2019-03-19T21:25:16.063Z,2.40
2019-03-19T21:27:45.219Z,2.40
2019-03-19T21:30:15.556Z,2.00
2019-03-19T21:32:44.894Z,1.82
2019-03-19T21:35:14.606Z,2.33
2019-03-19T21:37:44.030Z,2.45
2019-03-19T21:40:13.925Z,1.77
2019-03-19T21:42:43.092Z,2.40
2019-03-19T21:45:12.395Z,2.30
2019-03-19T21:47:41.823Z,3.33
2019-03-19T21:50:12.738Z,3.20
2019-03-19T21:52:41.867Z,3.95
2019-03-19T21:55:11.215Z,3.35
2019-03-19T21:57:40.344Z,3.75
2019-03-19T22:00:12.412Z,2.60
2019-03-19T22:02:41.668Z,2.98
2019-03-19T22:05:10.902Z,4.35
2019-03-19T22:07:40.040Z,2.70
2019-03-19T22:10:11.956Z,3.83
2019-03-19T22:12:41.167Z,3.08
2019-03-19T22:15:14.020Z,3.60
2019-03-19T22:17:43.290Z,3.45
2019-03-19T22:20:13.813Z,3.70
2019-03-19T22:22:42.958Z,4.60
2019-03-19T22:25:12.488Z,3.92
2019-03-19T22:27:41.626Z,3.12
2019-03-19T22:30:13.178Z,3.30
2019-03-19T22:32:42.296Z,2.55
2019-03-19T22:35:11.743Z,2.67
2019-03-19T22:37:41.035Z,2.80
2019-03-19T22:40:11.342Z,2.35
2019-03-19T22:42:40.482Z,2.60
2019-03-19T22:45:11.317Z,2.72
2019-03-19T22:47:40.491Z,2.37
2019-03-19T22:50:10.534Z,2.77
2019-03-19T22:52:39.675Z,3.08
2019-03-19T22:55:09.016Z,2.45
2019-03-19T22:57:38.313Z,2.27
2019-03-19T23:00:10.513Z,2.40
2019-03-19T23:02:39.633Z,2.77
2019-03-19T23:05:08.861Z,2.12
2019-03-19T23:07:38.006Z,2.10
2019-03-19T23:10:07.514Z,2.30
2019-03-19T23:12:36.653Z,2.75
2019-03-19T23:15:07.557Z,2.92
2019-03-19T23:17:36.691Z,3.47
2019-03-19T23:20:07.301Z,3.40
2019-03-19T23:22:36.412Z,3.20
2019-03-19T23:25:06.371Z,2.92
2019-03-19T23:27:35.515Z,2.92
2019-03-19T23:30:05.892Z,2.92
2019-03-19T23:32:35.051Z,2.90
2019-03-19T23:35:04.248Z,2.45
2019-03-19T23:37:33.376Z,2.50
2019-03-19T23:40:02.569Z,3.25
2019-03-19T23:42:31.712Z,3.58
2019-03-19T23:45:00.852Z,3.00
2019-03-19T23:47:30.030Z,2.85
2019-03-19T23:49:59.142Z,2.30
2019-03-19T23:52:28.284Z,3.17
2019-03-19T23:54:57.411Z,3.33
2019-03-19T23:57:26.563Z,3.05
2019-03-19T23:59:55.710Z,2.55
